Terminal Aerodrome Forecast
Issued by NWS

Home | Current Version | Previous Version | Text Only | Print | Product List | Glossary On
Versions: 1 2 3 4 5 6 7 8 9 10 11 12 13 14 15 16 17 18 19 20 21 22
000
FTUS43 KLSX 241100
TAFUIN
TAF
KUIN 241138Z 2412/2512 22010KT P6SM FEW250 WS007/23035KT
     FM241500 25014G24KT P6SM FEW250
     FM242100 28012G20KT P6SM BKN035
     FM250000 30008KT P6SM BKN035
     FM250300 34006KT P6SM SKC=

USA.gov is the U.S. government's official web portal to all federal, state and local government web resources and services.